Time;durP1;ratioP1;P1;durP2;ratioP2;P2;SDS_P1;SDS_P2;PMS_P1;PMS_P2;Temp;Humidity;BMP_temperature;BMP_pressure;BME280_temperature;BME280_humidity;BME280_pressure;Samples;Min_cycle;Max_cycle;Signal;HPM_P1;HPM_P2
2023/06/21 00:01:44;;;;;;;9.82;8.93;;;;;;;23.39;49.32;100307.72;5134363;27;20564;-63
2023/06/21 00:04:11;;;;;;;8.63;7.93;;;;;;;23.40;49.48;100313.81;5131250;27;20574;-63
2023/06/21 00:06:39;;;;;;;9.07;8.27;;;;;;;23.38;49.34;100310.41;5139362;27;20641;-63
2023/06/21 00:09:07;;;;;;;8.77;7.85;;;;;;;23.38;49.26;100311.28;5133579;27;20203;-63
2023/06/21 00:11:35;;;;;;;8.43;7.63;;;;;;;23.38;49.24;100320.94;5131180;27;20696;-63
2023/06/21 00:14:05;;;;;;;8.05;7.28;;;;;;;23.36;49.07;100317.56;5133905;27;20633;-63
2023/06/21 00:16:33;;;;;;;8.63;7.93;;;;;;;23.36;49.16;100318.41;5130844;27;20250;-63
2023/06/21 00:19:01;;;;;;;8.73;7.93;;;;;;;23.34;49.59;100320.31;5133380;27;20207;-63
2023/06/21 00:21:29;;;;;;;9.30;7.90;;;;;;;23.32;49.11;100316.06;5122547;27;20204;-63
2023/06/21 00:24:01;;;;;;;8.68;7.95;;;;;;;23.31;49.08;100317.03;5134002;27;20204;-63
2023/06/21 00:26:30;;;;;;;8.40;7.70;;;;;;;23.29;49.15;100317.09;5132564;27;20559;-62
2023/06/21 00:28:58;;;;;;;8.65;7.85;;;;;;;23.28;49.19;100318.03;5132719;27;20287;-61
2023/06/21 00:31:27;;;;;;;9.00;8.05;;;;;;;23.27;49.28;100311.09;5137283;27;20285;-63
2023/06/21 00:33:55;;;;;;;8.30;7.47;;;;;;;23.28;49.06;100307.53;5130042;27;20286;-62
2023/06/21 00:36:24;;;;;;;8.65;7.82;;;;;;;23.28;49.12;100309.31;5131340;27;20624;-62
2023/06/21 00:38:52;;;;;;;8.85;7.95;;;;;;;23.25;49.00;100298.97;5131083;27;20208;-63
2023/06/21 00:41:21;;;;;;;9.23;8.43;;;;;;;23.23;49.23;100299.03;5133851;27;20222;-62
2023/06/21 00:43:49;;;;;;;7.63;7.03;;;;;;;23.24;49.40;100307.81;5133591;27;20251;-62
2023/06/21 00:46:17;;;;;;;9.07;8.18;;;;;;;23.20;49.26;100295.75;5131408;27;20274;-62
2023/06/21 00:48:46;;;;;;;8.05;7.38;;;;;;;23.19;49.49;100299.31;5129714;27;20199;-62
2023/06/21 00:51:14;;;;;;;9.38;8.20;;;;;;;23.15;49.42;100299.50;5128409;27;20210;-63
2023/06/21 00:53:43;;;;;;;8.90;8.10;;;;;;;23.15;49.57;100293.41;5138801;27;20633;-62
2023/06/21 00:56:12;;;;;;;9.15;8.25;;;;;;;23.12;49.72;100297.09;5127684;27;20211;-63
2023/06/21 00:58:40;;;;;;;9.13;8.32;;;;;;;23.12;49.88;100290.97;5133985;27;20223;-62
2023/06/21 01:01:08;;;;;;;9.15;8.25;;;;;;;23.09;50.04;100293.78;5133433;27;20235;-62
2023/06/21 01:03:36;;;;;;;9.60;8.80;;;;;;;23.06;50.22;100294.81;5131228;27;20206;-61
2023/06/21 01:06:13;;;;;;;9.48;8.57;;;;;;;23.05;50.39;100280.00;5131707;27;20213;-61
2023/06/21 01:08:50;;;;;;;10.50;9.27;;;;;;;23.04;50.67;100280.91;5128068;27;20543;-61
2023/06/21 01:11:24;;;;;;;10.65;9.65;;;;;;;23.00;50.72;100283.81;5132584;27;20199;-60
2023/06/21 01:14:06;;;;;;;10.15;9.15;;;;;;;23.00;50.90;100294.31;5126579;27;20207;-60
2023/06/21 01:16:40;;;;;;;10.00;9.10;;;;;;;22.98;51.19;100293.59;5133133;27;20271;-60
2023/06/21 01:19:21;;;;;;;11.27;10.13;;;;;;;22.97;51.17;100300.59;5126480;27;20247;-61
2023/06/21 01:21:52;;;;;;;11.20;10.02;;;;;;;22.96;51.18;100303.34;5133742;27;20593;-64
2023/06/21 01:24:32;;;;;;;12.65;9.77;;;;;;;22.96;51.35;100309.44;5128271;27;20195;-61
2023/06/21 01:27:19;;;;;;;11.55;10.15;;;;;;;22.96;51.38;100319.09;5131443;27;20190;-61
2023/06/21 01:29:55;;;;;;;12.00;9.95;;;;;;;22.94;51.34;100324.47;5124378;27;20239;-61
2023/06/21 01:32:24;;;;;;;10.55;9.65;;;;;;;22.90;51.26;100320.25;5127362;27;20230;-61
2023/06/21 01:34:53;;;;;;;11.25;10.15;;;;;;;22.84;51.26;100316.22;5137188;27;20218;-61
2023/06/21 01:37:21;;;;;;;9.98;8.98;;;;;;;22.85;51.39;100317.91;5130240;27;20230;-60
2023/06/21 01:39:50;;;;;;;10.35;9.35;;;;;;;22.83;51.28;100318.94;5126206;27;20606;-60
2023/06/21 01:42:18;;;;;;;9.93;8.55;;;;;;;22.81;51.39;100316.41;5128687;27;20252;-60
2023/06/21 01:44:47;;;;;;;10.38;9.38;;;;;;;22.81;51.50;100318.19;5132736;27;20198;-60
2023/06/21 01:47:17;;;;;;;9.13;8.32;;;;;;;22.77;51.48;100316.66;5132546;27;20195;-61
2023/06/21 01:49:47;;;;;;;11.63;9.02;;;;;;;22.77;51.24;100321.91;5122857;27;20278;-62
2023/06/21 01:52:15;;;;;;;9.93;9.02;;;;;;;22.74;51.47;100322.94;5130208;27;20643;-60
2023/06/21 01:54:44;;;;;;;9.63;8.68;;;;;;;22.71;51.53;100317.00;5128695;27;20199;-61
2023/06/21 01:57:14;;;;;;;9.73;8.75;;;;;;;22.72;51.71;100327.44;5133457;27;20215;-63
2023/06/21 01:59:43;;;;;;;11.13;8.98;;;;;;;22.70;51.62;100326.69;5127512;27;20210;-60
2023/06/21 02:02:12;;;;;;;9.50;8.60;;;;;;;22.69;51.39;100332.88;5132870;27;20199;-60
2023/06/21 02:04:44;;;;;;;9.25;8.35;;;;;;;22.70;51.35;100328.47;5131128;27;20210;-63
2023/06/21 02:07:14;;;;;;;9.55;8.65;;;;;;;22.67;51.36;100332.94;5129119;27;20248;-61
2023/06/21 02:09:44;;;;;;;9.48;8.63;;;;;;;22.66;51.43;100328.63;5126322;27;20199;-61
2023/06/21 02:12:13;;;;;;;8.88;7.88;;;;;;;22.64;51.29;100330.53;5125729;27;20227;-61
2023/06/21 02:14:41;;;;;;;9.73;8.82;;;;;;;22.64;51.26;100320.00;5132991;27;20196;-61
2023/06/21 02:17:09;;;;;;;10.82;8.93;;;;;;;22.63;51.32;100323.56;5129281;27;20215;-61
2023/06/21 02:19:38;;;;;;;9.38;8.57;;;;;;;22.62;51.48;100321.03;5130241;27;20203;-62
2023/06/21 02:22:08;;;;;;;9.30;8.50;;;;;;;22.61;51.27;100329.84;5128971;27;20196;-60
2023/06/21 02:24:37;;;;;;;10.02;9.20;;;;;;;22.60;51.48;100333.38;5132027;27;20198;-60
2023/06/21 02:27:05;;;;;;;10.00;9.05;;;;;;;22.60;51.57;100326.34;5137978;27;20199;-60
2023/06/21 02:29:33;;;;;;;10.05;9.10;;;;;;;22.60;51.50;100331.59;5126056;27;20283;-61
2023/06/21 02:32:01;;;;;;;10.32;9.32;;;;;;;22.60;51.38;100328.97;5131235;27;20290;-61
2023/06/21 02:34:30;;;;;;;10.38;9.38;;;;;;;22.60;51.62;100331.59;5128363;27;20203;-62
2023/06/21 02:36:58;;;;;;;10.52;9.38;;;;;;;22.58;51.81;100330.00;5131700;27;20638;-61
2023/06/21 02:39:27;;;;;;;10.40;8.48;;;;;;;22.59;51.57;100329.06;5130798;27;20198;-60
2023/06/21 02:41:55;;;;;;;10.23;9.23;;;;;;;22.55;51.73;100330.19;5124222;27;20203;-61
2023/06/21 02:44:23;;;;;;;10.00;9.10;;;;;;;22.52;51.86;100330.34;5130478;27;20210;-61
2023/06/21 02:46:51;;;;;;;9.75;8.93;;;;;;;22.51;51.75;100324.25;5127891;27;20198;-62
2023/06/21 02:49:19;;;;;;;11.73;9.18;;;;;;;22.51;51.80;100334.75;5129763;27;20646;-60
2023/06/21 02:51:50;;;;;;;9.68;8.75;;;;;;;22.52;51.68;100335.59;5127588;27;20195;-61
2023/06/21 02:54:18;;;;;;;9.80;8.80;;;;;;;22.53;51.83;100335.50;5131614;27;20221;-60
2023/06/21 02:56:47;;;;;;;9.77;8.70;;;;;;;22.52;51.58;100331.19;5131814;27;20223;-61
2023/06/21 02:59:15;;;;;;;9.95;8.73;;;;;;;22.53;51.59;100335.50;5132091;27;20252;-59
2023/06/21 03:01:47;;;;;;;10.48;9.52;;;;;;;22.57;51.63;100333.56;5131345;27;20588;-59
2023/06/21 03:04:17;;;;;;;9.90;8.90;;;;;;;22.56;51.51;100327.47;5128200;27;20199;-59
2023/06/21 03:06:45;;;;;;;9.80;8.95;;;;;;;22.56;51.26;100330.09;5129908;27;20276;-60
2023/06/21 03:09:14;;;;;;;10.88;9.60;;;;;;;22.56;51.57;100332.72;5128378;27;20654;-60
2023/06/21 03:11:42;;;;;;;10.10;8.65;;;;;;;22.57;51.43;100329.16;5131640;27;20564;-58
2023/06/21 03:14:11;;;;;;;9.48;8.68;;;;;;;22.59;51.60;100343.03;5129619;27;20207;-59
2023/06/21 03:16:40;;;;;;;9.10;8.30;;;;;;;22.61;51.32;100338.56;5130090;27;20609;-60
2023/06/21 03:19:09;;;;;;;10.90;9.05;;;;;;;22.65;51.08;100347.97;5131260;27;20536;-59
2023/06/21 03:21:37;;;;;;;9.95;8.98;;;;;;;22.66;51.27;100341.75;5128996;27;20281;-60
2023/06/21 03:24:05;;;;;;;10.35;9.45;;;;;;;22.67;51.19;100340.81;5129778;27;20203;-60
2023/06/21 03:26:35;;;;;;;10.52;9.52;;;;;;;22.69;51.33;100347.78;5139606;27;20199;-60
2023/06/21 03:29:03;;;;;;;10.55;9.55;;;;;;;22.69;51.36;100342.53;5131544;28;20210;-58
2023/06/21 03:31:33;;;;;;;10.63;9.57;;;;;;;22.70;51.37;100338.97;5128819;27;20659;-61
2023/06/21 03:34:02;;;;;;;11.15;10.05;;;;;;;22.74;51.70;100351.00;5120993;27;20230;-61
2023/06/21 03:36:30;;;;;;;10.65;9.75;;;;;;;22.78;51.53;100342.84;5128992;27;20208;-61
2023/06/21 03:38:58;;;;;;;12.20;10.18;;;;;;;22.81;51.63;100339.19;5131963;28;20217;-60
2023/06/21 03:41:26;;;;;;;11.10;10.10;;;;;;;22.85;51.44;100338.09;5130125;27;20290;-60
2023/06/21 03:43:54;;;;;;;11.48;9.82;;;;;;;22.87;51.25;100341.47;5125565;27;20253;-59
2023/06/21 03:46:22;;;;;;;10.93;9.93;;;;;;;22.90;51.36;100336.03;5131056;27;20223;-59
2023/06/21 03:48:53;;;;;;;11.23;10.05;;;;;;;22.89;51.26;100337.81;5132190;27;20269;-60
2023/06/21 03:51:22;;;;;;;11.93;10.70;;;;;;;22.89;51.55;100334.34;5128653;27;20195;-59
2023/06/21 03:53:50;;;;;;;11.75;10.55;;;;;;;22.91;51.75;100343.00;5133625;27;20203;-59
2023/06/21 03:56:18;;;;;;;11.75;10.55;;;;;;;22.95;51.77;100335.81;5131714;27;20276;-59
2023/06/21 03:58:46;;;;;;;12.05;10.80;;;;;;;22.99;51.77;100335.53;5134206;27;20231;-60
2023/06/21 04:01:17;;;;;;;12.02;10.80;;;;;;;23.03;51.84;100344.09;5133313;27;20248;-63
2023/06/21 04:03:45;;;;;;;11.85;10.65;;;;;;;23.06;51.60;100342.13;5136935;27;20684;-59
2023/06/21 04:06:15;;;;;;;11.75;10.65;;;;;;;23.11;51.63;100339.22;5136144;27;20210;-60
2023/06/21 04:08:43;;;;;;;12.43;11.07;;;;;;;23.15;51.60;100338.09;5128076;27;20198;-60
2023/06/21 04:11:11;;;;;;;11.82;10.63;;;;;;;23.19;51.76;100341.41;5133551;27;20202;-60
2023/06/21 04:13:40;;;;;;;13.40;10.93;;;;;;;23.24;51.63;100344.63;5134161;27;20195;-60
2023/06/21 04:16:08;;;;;;;12.15;11.02;;;;;;;23.27;51.45;100344.41;5124831;27;20199;-59
2023/06/21 04:18:36;;;;;;;12.68;11.43;;;;;;;23.29;51.52;100350.44;5133374;27;20210;-59
2023/06/21 04:21:04;;;;;;;12.05;10.90;;;;;;;23.37;51.40;100359.53;5132332;27;20200;-59
2023/06/21 04:23:34;;;;;;;11.82;10.63;;;;;;;23.44;51.05;100352.13;5134989;27;20203;-60
2023/06/21 04:26:05;;;;;;;11.63;10.55;;;;;;;23.47;50.83;100351.13;5129850;27;20212;-60
2023/06/21 04:28:33;;;;;;;12.70;11.43;;;;;;;23.47;50.79;100346.69;5133633;27;20203;-60
2023/06/21 04:31:02;;;;;;;12.00;10.88;;;;;;;23.47;50.52;100351.97;5134671;27;20235;-60
2023/06/21 04:33:30;;;;;;;12.90;11.20;;;;;;;23.44;50.73;100352.13;5134862;27;20204;-59
2023/06/21 04:35:59;;;;;;;15.25;11.85;;;;;;;23.44;50.52;100354.78;5133746;27;20199;-59
2023/06/21 04:38:27;;;;;;;11.70;10.50;;;;;;;23.43;50.75;100353.09;5133457;27;20223;-59
2023/06/21 04:40:56;;;;;;;10.93;9.88;;;;;;;23.40;50.67;100355.91;5134850;27;20568;-61
2023/06/21 04:43:25;;;;;;;11.10;10.13;;;;;;;23.42;50.74;100358.41;5141346;27;20298;-62
2023/06/21 04:45:53;;;;;;;11.02;10.02;;;;;;;23.41;50.67;100357.56;5136695;27;20207;-60
2023/06/21 04:48:24;;;;;;;12.57;10.50;;;;;;;23.44;50.55;100352.13;5133103;27;20195;-61
2023/06/21 04:50:52;;;;;;;11.20;10.05;;;;;;;23.44;50.47;100352.13;5131626;27;20688;-63
2023/06/21 04:53:29;;;;;;;12.48;10.15;;;;;;;23.48;50.26;100352.81;5133642;27;20252;-63
2023/06/21 04:55:59;;;;;;;11.30;10.20;;;;;;;23.51;50.18;100348.19;5131557;27;20202;-62
2023/06/21 04:58:27;;;;;;;10.73;9.73;;;;;;;23.55;50.21;100344.44;5143108;27;20708;-62
2023/06/21 05:00:55;;;;;;;11.80;10.48;;;;;;;23.62;50.30;100345.75;5131296;27;20721;-62
2023/06/21 05:03:23;;;;;;;12.30;11.20;;;;;;;23.67;50.58;100348.13;5128276;27;20204;-62
2023/06/21 05:05:51;;;;;;;11.98;10.80;;;;;;;23.69;50.60;100345.44;5129379;27;20200;-63
2023/06/21 05:08:19;;;;;;;12.25;10.90;;;;;;;23.74;50.70;100351.25;5132716;27;20213;-63
2023/06/21 05:10:47;;;;;;;12.07;10.90;;;;;;;23.90;50.61;100354.66;5126682;27;20242;-62
2023/06/21 05:13:17;;;;;;;11.63;10.50;;;;;;;24.41;49.93;100351.47;5134876;27;20203;-62
2023/06/21 05:15:45;;;;;;;11.98;10.88;;;;;;;25.52;48.12;100349.31;5124044;27;20258;-62
2023/06/21 05:18:13;;;;;;;12.27;10.65;;;;;;;26.19;45.72;100342.91;5128037;27;20215;-63
2023/06/21 05:20:41;;;;;;;11.95;10.57;;;;;;;26.50;44.18;100338.91;5132763;27;20203;-61
2023/06/21 05:23:10;;;;;;;12.18;9.88;;;;;;;27.19;43.26;100345.19;5134085;27;20286;-62
2023/06/21 05:25:38;;;;;;;11.48;10.27;;;;;;;28.26;41.67;100343.91;5131205;27;20286;-64
2023/06/21 05:28:06;;;;;;;11.57;10.38;;;;;;;29.47;38.27;100346.28;5132570;27;20202;-63
2023/06/21 05:30:35;;;;;;;11.45;10.38;;;;;;;30.64;35.92;100345.69;5133118;27;20258;-59
2023/06/21 05:33:03;;;;;;;12.07;10.52;;;;;;;31.54;34.50;100343.63;5131474;27;20591;-60
2023/06/21 05:35:31;;;;;;;10.93;9.23;;;;;;;32.49;32.56;100348.63;5127831;27;20207;-61
2023/06/21 05:38:00;;;;;;;11.57;10.35;;;;;;;32.72;31.56;100349.84;5127525;27;20207;-62
2023/06/21 05:40:28;;;;;;;10.85;9.90;;;;;;;31.74;33.03;100351.41;5127388;27;20195;-61
2023/06/21 05:43:00;;;;;;;11.77;9.88;;;;;;;30.55;35.05;100351.81;5128896;27;20241;-62
2023/06/21 05:45:29;;;;;;;12.27;10.00;;;;;;;29.44;37.00;100365.13;5124972;27;20216;-61
2023/06/21 05:47:59;;;;;;;11.70;10.48;;;;;;;28.50;39.16;100364.97;5128314;27;20207;-61
2023/06/21 05:50:30;;;;;;;12.82;11.10;;;;;;;27.77;40.67;100361.06;5132308;27;20664;-60
2023/06/21 05:52:58;;;;;;;12.27;10.98;;;;;;;27.26;41.73;100366.75;5128724;27;20294;-61
2023/06/21 05:55:26;;;;;;;13.82;11.30;;;;;;;26.86;43.01;100367.06;5119839;27;20297;-61
2023/06/21 05:57:54;;;;;;;14.98;11.63;;;;;;;26.62;43.18;100368.88;5131548;27;20290;-62
2023/06/21 06:00:24;;;;;;;11.35;10.25;;;;;;;26.65;43.82;100364.19;5132513;27;20552;-62
2023/06/21 06:02:53;;;;;;;13.13;11.60;;;;;;;27.28;44.12;100358.69;5126066;27;20203;-60
2023/06/21 06:05:22;;;;;;;12.30;11.02;;;;;;;29.35;39.68;100353.50;5131100;27;20203;-63
2023/06/21 06:07:50;;;;;;;11.95;10.65;;;;;;;31.45;35.48;100351.50;5131364;27;20673;-62
2023/06/21 06:10:19;;;;;;;10.95;9.85;;;;;;;33.39;31.92;100344.84;5126003;27;20595;-64
2023/06/21 06:12:47;;;;;;;11.30;10.27;;;;;;;35.05;29.46;100346.00;5126660;27;20478;-64
2023/06/21 06:15:15;;;;;;;10.73;9.82;;;;;;;36.24;27.70;100350.53;5130882;27;20342;-61
2023/06/21 06:17:44;;;;;;;11.18;10.10;;;;;;;36.40;26.32;100349.56;5130315;27;20198;-60
2023/06/21 06:20:13;;;;;;;11.15;9.35;;;;;;;36.25;26.53;100350.34;5133209;27;20238;-59
2023/06/21 06:22:42;;;;;;;31.88;9.35;;;;;;;36.14;27.42;100339.19;5129978;27;20199;-60
2023/06/21 06:25:11;;;;;;;10.35;9.25;;;;;;;35.89;27.29;100347.31;5133016;27;20238;-60
2023/06/21 06:27:39;;;;;;;10.65;9.65;;;;;;;35.47;27.71;100345.78;5128879;27;20211;-61
2023/06/21 06:30:08;;;;;;;10.05;9.07;;;;;;;34.74;28.77;100345.84;5128544;27;20270;-62
2023/06/21 06:32:36;;;;;;;12.05;9.70;;;;;;;34.10;29.74;100340.22;5131989;27;20203;-60
2023/06/21 06:35:06;;;;;;;9.68;8.77;;;;;;;33.47;30.28;100341.41;5127774;27;20213;-66
2023/06/21 06:37:34;;;;;;;11.48;9.05;;;;;;;32.91;32.22;100337.31;5130121;27;20285;-64
2023/06/21 06:40:05;;;;;;;10.75;9.85;;;;;;;32.29;32.70;100339.03;5134029;27;20214;-64
2023/06/21 06:42:33;;;;;;;9.70;8.90;;;;;;;31.86;33.49;100343.25;5128887;27;20207;-64
2023/06/21 06:45:07;;;;;;;10.43;9.38;;;;;;;31.43;34.42;100342.81;5119861;27;20199;-63
2023/06/21 06:47:35;;;;;;;9.80;8.80;;;;;;;31.15;34.76;100338.38;5124125;27;20253;-63
2023/06/21 06:50:04;;;;;;;10.35;9.35;;;;;;;30.92;35.44;100335.19;5128523;27;20227;-61
2023/06/21 06:52:32;;;;;;;9.80;8.90;;;;;;;30.69;35.85;100343.44;5133502;27;20199;-60
2023/06/21 06:55:00;;;;;;;10.63;9.75;;;;;;;30.57;36.02;100341.91;5131774;27;20214;-61
2023/06/21 06:57:30;;;;;;;10.82;9.60;;;;;;;30.48;36.25;100340.06;5123970;27;20206;-62
2023/06/21 07:00:11;;;;;;;9.45;8.55;;;;;;;30.37;37.01;100335.72;5127298;27;20309;-60
2023/06/21 07:02:39;;;;;;;10.55;9.43;;;;;;;30.24;36.91;100333.31;5130082;27;20654;-60
2023/06/21 07:05:08;;;;;;;10.13;9.20;;;;;;;30.12;36.48;100328.22;5124300;27;20589;-66
2023/06/21 07:07:36;;;;;;;10.30;9.30;;;;;;;29.99;37.09;100333.78;5124593;27;20195;-62
2023/06/21 07:10:05;;;;;;;10.30;9.32;;;;;;;29.96;37.56;100334.06;5131225;27;20199;-64
2023/06/21 07:12:34;;;;;;;12.32;9.40;;;;;;;29.89;37.97;100330.25;5134160;27;20201;-64
2023/06/21 07:15:03;;;;;;;13.48;9.95;;;;;;;29.90;37.93;100334.59;5129659;27;20661;-64
2023/06/21 07:17:31;;;;;;;11.20;9.38;;;;;;;29.83;37.96;100329.84;5135783;27;20209;-60
2023/06/21 07:19:59;;;;;;;12.07;9.60;;;;;;;31.44;35.74;100322.34;5122731;27;20595;-62
2023/06/21 07:22:27;;;;;;;10.85;9.75;;;;;;;34.06;31.64;100326.34;5127420;27;20203;-61
2023/06/21 07:24:55;;;;;;;10.13;8.55;;;;;;;36.70;27.32;100323.69;5135055;27;20199;-60
2023/06/21 07:27:25;;;;;;;9.20;8.25;;;;;;;38.88;24.01;100325.69;5122791;27;20569;-61
2023/06/21 07:29:55;;;;;;;9.02;8.15;;;;;;;40.33;21.77;100322.06;5118175;27;20288;-65
2023/06/21 07:32:23;;;;;;;11.70;7.80;;;;;;;41.14;20.64;100336.47;5124115;27;20638;-59
2023/06/21 07:35:00;;;;;;;9.45;8.63;;;;;;;41.75;20.13;100323.38;5134256;27;20233;-71
2023/06/21 07:37:30;;;;;;;10.65;8.50;;;;;;;41.81;20.20;100327.09;5130084;27;20625;-62
2023/06/21 07:39:58;;;;;;;9.38;8.18;;;;;;;41.30;20.53;100314.38;5132177;27;20218;-61
2023/06/21 07:42:26;;;;;;;8.60;7.80;;;;;;;40.24;20.55;100317.88;5129910;27;20556;-61
2023/06/21 07:44:55;;;;;;;9.38;7.38;;;;;;;39.10;22.11;100312.16;5121197;27;20203;-61
2023/06/21 07:47:23;;;;;;;8.35;7.53;;;;;;;37.92;23.02;100318.91;5133548;27;20206;-61
2023/06/21 07:49:52;;;;;;;7.75;7.03;;;;;;;36.73;25.17;100324.16;5135478;27;20200;-60
2023/06/21 07:52:20;;;;;;;8.88;7.95;;;;;;;35.76;26.31;100325.59;5128657;27;20214;-63
2023/06/21 07:54:49;;;;;;;9.23;8.43;;;;;;;35.05;27.59;100316.56;5125854;27;20257;-63
2023/06/21 07:57:17;;;;;;;9.13;8.23;;;;;;;34.30;28.44;100312.16;5126709;27;20207;-63
2023/06/21 07:59:46;;;;;;;9.30;8.02;;;;;;;33.67;29.76;100318.81;5124308;27;20226;-62
2023/06/21 08:02:17;;;;;;;9.40;8.43;;;;;;;33.34;30.48;100319.59;5134836;27;20285;-62
2023/06/21 08:04:46;;;;;;;8.77;7.90;;;;;;;33.22;31.28;100320.88;5117988;27;20268;-62
2023/06/21 08:07:18;;;;;;;10.35;8.38;;;;;;;33.12;31.92;100323.66;5124893;27;20200;-62
2023/06/21 08:09:48;;;;;;;8.45;7.65;;;;;;;32.94;31.48;100318.34;5133003;27;20211;-63
2023/06/21 08:12:16;;;;;;;10.07;8.60;;;;;;;32.67;31.36;100328.13;5132076;27;20621;-61
2023/06/21 08:14:45;;;;;;;9.07;8.27;;;;;;;32.52;30.78;100318.16;5135778;27;20210;-63
2023/06/21 08:17:13;;;;;;;13.27;9.32;;;;;;;32.47;30.54;100329.25;5136944;27;20207;-61
2023/06/21 08:19:42;;;;;;;10.63;8.35;;;;;;;32.31;29.27;100318.41;5129233;27;20227;-63
2023/06/21 08:22:10;;;;;;;43.17;20.75;;;;;;;32.28;29.47;100308.88;5128029;27;20522;-61
2023/06/21 08:24:38;;;;;;;10.02;8.50;;;;;;;32.26;29.50;100316.22;5140379;27;20207;-62
2023/06/21 08:27:07;;;;;;;11.43;8.73;;;;;;;32.35;29.64;100322.44;5137756;27;20571;-64
2023/06/21 08:29:36;;;;;;;21.60;14.13;;;;;;;32.43;29.93;100314.56;5131768;27;20234;-64
2023/06/21 08:32:05;;;;;;;8.80;8.02;;;;;;;32.49;29.88;100323.78;5130790;27;20240;-67
2023/06/21 08:34:34;;;;;;;10.65;8.70;;;;;;;32.45;29.42;100326.75;5125818;27;20231;-63
2023/06/21 08:37:04;;;;;;;13.93;8.25;;;;;;;32.53;29.52;100320.66;5131253;27;20274;-64
2023/06/21 08:39:32;;;;;;;8.88;7.75;;;;;;;32.54;30.05;100327.66;5125836;27;22284;-64
2023/06/21 08:42:00;;;;;;;10.38;8.55;;;;;;;32.47;30.08;100326.59;5127747;27;20203;-63
2023/06/21 08:44:28;;;;;;;8.57;7.70;;;;;;;32.38;30.96;100330.97;5127402;27;20240;-64
2023/06/21 08:46:56;;;;;;;8.10;7.40;;;;;;;32.35;30.69;100322.44;5130272;27;20577;-63
2023/06/21 08:49:27;;;;;;;10.68;7.55;;;;;;;32.42;30.82;100323.56;5142663;27;20203;-63
2023/06/21 08:51:59;;;;;;;9.05;8.18;;;;;;;32.56;29.87;100323.03;5130210;27;20203;-64
2023/06/21 08:54:31;;;;;;;7.47;6.88;;;;;;;32.42;29.87;100326.22;5129718;27;20550;-63
2023/06/21 08:57:04;;;;;;;7.88;7.18;;;;;;;32.28;30.29;100314.22;5132797;27;20207;-64
2023/06/21 08:59:39;;;;;;;10.07;8.13;;;;;;;32.15;30.73;100322.59;5131106;27;20248;-64
2023/06/21 09:02:21;;;;;;;8.52;7.82;;;;;;;31.92;31.12;100322.16;5130955;27;20247;-59
2023/06/21 09:04:53;;;;;;;9.18;8.38;;;;;;;31.92;31.69;100321.31;5131982;27;20203;-58
2023/06/21 09:07:22;;;;;;;9.00;8.20;;;;;;;31.96;31.43;100322.69;5132875;27;20231;-59
2023/06/21 09:09:54;;;;;;;9.55;8.75;;;;;;;31.88;31.72;100315.44;5128851;27;20540;-59
2023/06/21 09:12:24;;;;;;;9.10;8.32;;;;;;;31.96;31.98;100323.56;5128459;27;20204;-58
2023/06/21 09:14:54;;;;;;;9.48;8.55;;;;;;;32.00;32.12;100313.44;5131318;27;20298;-59
2023/06/21 09:17:23;;;;;;;9.13;8.10;;;;;;;32.10;31.48;100308.84;5135803;27;20222;-58
2023/06/21 09:19:54;;;;;;;8.90;7.53;;;;;;;32.29;31.37;100320.38;5126063;27;20622;-60
2023/06/21 09:22:27;;;;;;;8.10;7.45;;;;;;;32.39;30.29;100318.47;5119537;27;20255;-63
2023/06/21 09:24:56;;;;;;;8.93;8.02;;;;;;;32.34;30.27;100310.13;5121806;27;20203;-63
2023/06/21 09:27:24;;;;;;;7.97;7.25;;;;;;;32.24;30.37;100311.00;5121898;27;20268;-62
2023/06/21 09:29:52;;;;;;;8.38;7.57;;;;;;;31.85;30.82;100310.41;5124327;27;20230;-60
2023/06/21 09:32:20;;;;;;;8.30;7.60;;;;;;;31.65;31.14;100309.63;5137064;27;20194;-61
2023/06/21 09:34:50;;;;;;;9.50;7.95;;;;;;;31.63;32.08;100310.75;5129344;27;20268;-62
2023/06/21 09:37:39;;;;;;;8.32;7.60;;;;;;;31.69;31.42;100315.50;5129594;27;20243;-63
2023/06/21 09:40:13;;;;;;;9.48;7.60;;;;;;;31.73;31.94;100315.06;5130076;27;20199;-63
2023/06/21 09:42:42;;;;;;;9.40;7.75;;;;;;;31.87;31.87;100311.09;5128497;27;21822;-65
2023/06/21 09:45:10;;;;;;;8.40;7.70;;;;;;;32.02;31.53;100307.94;5129341;27;20195;-64
2023/06/21 09:47:41;;;;;;;11.13;8.18;;;;;;;32.26;31.30;100310.00;5126698;27;20215;-59
2023/06/21 09:50:11;;;;;;;7.40;6.82;;;;;;;32.58;30.91;100307.69;5122532;27;20203;-60
2023/06/21 09:52:43;;;;;;;8.93;8.13;;;;;;;32.67;30.26;100308.59;5125936;27;20195;-60
2023/06/21 09:55:15;;;;;;;7.63;7.03;;;;;;;32.69;30.49;100309.28;5130659;27;20227;-60
2023/06/21 09:57:45;;;;;;;9.50;8.10;;;;;;;32.69;30.56;100303.94;5121756;27;20207;-61
2023/06/21 10:00:14;;;;;;;8.93;8.13;;;;;;;32.56;30.04;100315.00;5122722;27;20200;-60
2023/06/21 10:02:43;;;;;;;8.63;7.30;;;;;;;32.33;30.13;100319.94;5126593;27;20232;-61
2023/06/21 10:05:18;;;;;;;8.75;7.95;;;;;;;31.99;30.70;100323.22;5126898;27;20399;-60
2023/06/21 10:07:46;;;;;;;8.32;7.60;;;;;;;31.61;30.99;100316.25;5128350;27;20281;-59
2023/06/21 10:10:16;;;;;;;11.35;10.30;;;;;;;31.27;31.84;100311.44;5130134;27;20226;-61
2023/06/21 10:12:51;;;;;;;8.73;7.80;;;;;;;31.04;31.96;100312.75;5121542;27;20217;-60
2023/06/21 10:15:23;;;;;;;8.50;7.80;;;;;;;30.82;32.60;100310.41;5132292;27;20203;-62
2023/06/21 10:17:53;;;;;;;11.55;7.97;;;;;;;30.62;32.65;100309.56;5132288;27;20525;-66
2023/06/21 10:20:25;;;;;;;8.27;7.40;;;;;;;30.41;33.10;100317.66;5131352;27;20282;-63
2023/06/21 10:22:57;;;;;;;7.93;7.20;;;;;;;30.21;33.86;100314.97;5124634;27;20199;-62
2023/06/21 10:25:28;;;;;;;9.20;8.23;;;;;;;30.02;34.24;100309.59;5121846;27;22047;-61
2023/06/21 10:28:00;;;;;;;10.90;9.65;;;;;;;29.84;34.36;100315.56;5125323;27;20199;-61
2023/06/21 10:30:28;;;;;;;8.52;7.80;;;;;;;29.70;34.66;100323.91;5127682;27;20782;-62
2023/06/21 10:32:58;;;;;;;10.40;9.38;;;;;;;29.60;34.99;100318.56;5129161;27;20556;-62
2023/06/21 10:35:28;;;;;;;8.60;7.80;;;;;;;29.50;35.59;100325.63;5132465;27;20256;-62
2023/06/21 10:38:04;;;;;;;21.02;11.68;;;;;;;29.40;35.67;100322.06;5131494;27;20704;-62
2023/06/21 10:40:36;;;;;;;10.98;8.02;;;;;;;29.28;35.01;100321.31;5126400;27;20207;-64
2023/06/21 10:43:04;;;;;;;11.90;9.55;;;;;;;29.21;35.27;100329.94;5134067;27;20222;-63
2023/06/21 10:45:34;;;;;;;15.55;12.55;;;;;;;29.13;35.35;100330.59;5133245;27;20214;-63
2023/06/21 10:48:04;;;;;;;8.77;7.90;;;;;;;29.06;35.47;100335.56;5128251;27;20284;-63
2023/06/21 10:50:32;;;;;;;8.65;7.85;;;;;;;29.04;35.36;100341.97;5129819;27;20227;-62
2023/06/21 10:53:01;;;;;;;7.68;6.97;;;;;;;28.99;35.39;100333.56;5126995;27;20206;-62
2023/06/21 10:55:30;;;;;;;8.63;7.93;;;;;;;28.96;35.71;100344.41;5128236;27;20246;-61
2023/06/21 10:58:02;;;;;;;9.75;8.90;;;;;;;28.93;36.56;100337.53;5128653;27;20252;-62
2023/06/21 11:00:30;;;;;;;8.30;7.60;;;;;;;28.87;36.77;100344.19;5135937;27;20202;-62
2023/06/21 11:02:59;;;;;;;11.48;9.80;;;;;;;28.84;36.88;100347.09;5130407;27;20215;-61
2023/06/21 11:05:28;;;;;;;9.32;8.43;;;;;;;28.77;37.27;100351.22;5127612;27;20195;-63
2023/06/21 11:07:57;;;;;;;9.25;7.25;;;;;;;28.71;37.54;100354.38;5129765;27;20673;-62
2023/06/21 11:10:31;;;;;;;9.20;7.57;;;;;;;28.61;37.78;100361.41;5131942;27;20620;-62
2023/06/21 11:13:00;;;;;;;9.57;8.52;;;;;;;28.54;38.22;100362.91;5132414;27;20256;-61
2023/06/21 11:15:29;;;;;;;9.10;8.30;;;;;;;28.45;38.69;100361.81;5129254;27;20240;-62
2023/06/21 11:18:00;;;;;;;15.93;10.52;;;;;;;28.39;39.26;100368.50;5131584;27;20282;-62
2023/06/21 11:20:31;;;;;;;18.73;13.50;;;;;;;28.31;39.63;100364.72;5130713;28;20241;-64
2023/06/21 11:23:01;;;;;;;11.95;10.07;;;;;;;28.26;40.64;100373.03;5127975;27;20207;-62
2023/06/21 11:25:29;;;;;;;22.02;9.98;;;;;;;28.22;40.12;100371.63;5131155;27;20203;-61
2023/06/21 11:28:24;;;;;;;20.67;13.02;;;;;;;28.09;40.40;100389.44;5118367;28;20213;-62
2023/06/21 11:31:09;;;;;;;9.68;8.73;;;;;;;27.80;41.94;100397.03;5131777;27;20238;-62